Time,TemperatureF,DewpointF,PressureIn,WindDirection,WindDirectionDegrees,WindSpeedMPH,WindSpeedGustMPH,Humidity,HourlyPrecipIn,Conditions,Clouds,dailyrainin,SoftwareType,DateUTC
2013-08-08 00:05:00,69.5,65.0,29.99,North,355,4.0,-999.0,84,-99.99,,,0.00,weatherlink.com 1.10,2013-08-08 04:05:00,
2013-08-08 00:20:00,69.4,65.0,29.99,NNW,340,0.0,-999.0,85,-99.99,,,0.00,weatherlink.com 1.10,2013-08-08 04:20:00,
2013-08-08 00:35:00,69.2,65.0,29.99,North,5,3.0,-999.0,86,-99.99,,,0.00,weatherlink.com 1.10,2013-08-08 04:35:00,
2013-08-08 00:50:00,69.1,65.0,29.98,SW,226,0.0,-999.0,86,-99.99,,,0.00,weatherlink.com 1.10,2013-08-08 04:50:00,
2013-08-08 01:05:00,69.1,65.0,29.98,NNE,32,7.0,-999.0,86,-99.99,,,0.00,weatherlink.com 1.10,2013-08-08 05:05:00,
2013-08-08 01:20:00,69.3,65.0,29.99,NE,49,8.0,-999.0,86,-99.99,,,0.00,weatherlink.com 1.10,2013-08-08 05:20:00,
2013-08-08 01:35:00,69.3,65.0,29.99,North,11,2.0,-999.0,87,-99.99,,,0.00,weatherlink.com 1.10,2013-08-08 05:35:00,
2013-08-08 01:50:00,69.3,65.0,29.98,North,360,0.0,-999.0,87,-99.99,,,0.00,weatherlink.com 1.10,2013-08-08 05:50:00,
2013-08-08 02:05:00,69.3,66.0,29.98,NNW,345,5.0,-999.0,88,-99.99,,,0.00,weatherlink.com 1.10,2013-08-08 06:05:00,
2013-08-08 02:20:00,69.2,66.0,29.97,NW,315,0.0,-999.0,88,-99.99,,,0.00,weatherlink.com 1.10,2013-08-08 06:20:00,
2013-08-08 02:35:00,69.2,66.0,29.98,North,355,4.0,-999.0,89,-99.99,,,0.00,weatherlink.com 1.10,2013-08-08 06:35:00,
2013-08-08 02:50:00,69.3,66.0,29.97,NE,51,3.0,-999.0,89,-99.99,,,0.00,weatherlink.com 1.10,2013-08-08 06:50:00,
2013-08-08 03:05:00,69.3,66.0,29.97,North,9,0.0,-999.0,89,-99.99,,,0.00,weatherlink.com 1.10,2013-08-08 07:05:00,
2013-08-08 03:20:00,69.3,66.0,29.97,North,5,2.0,-999.0,89,-99.99,,,0.00,weatherlink.com 1.10,2013-08-08 07:20:00,
2013-08-08 03:35:00,69.4,66.0,29.97,North,355,4.0,-999.0,90,-99.99,,,0.00,weatherlink.com 1.10,2013-08-08 07:35:00,
2013-08-08 03:51:00,69.5,67.0,29.97,NNE,21,7.0,-999.0,90,-99.99,,,0.00,weatherlink.com 1.10,2013-08-08 07:51:00,
2013-08-08 04:06:00,69.5,67.0,29.96,ENE,59,0.0,-999.0,90,-99.99,,,0.00,weatherlink.com 1.10,2013-08-08 08:06:00,
2013-08-08 04:21:00,69.5,67.0,29.96,NNW,339,3.0,-999.0,90,-99.99,,,0.00,weatherlink.com 1.10,2013-08-08 08:21:00,
2013-08-08 04:36:00,69.7,67.0,29.96,NNE,16,7.0,-999.0,90,-99.99,,,0.00,weatherlink.com 1.10,2013-08-08 08:36:00,
2013-08-08 04:51:00,69.9,67.0,29.95,NW,313,1.0,-999.0,90,-99.99,,,0.00,weatherlink.com 1.10,2013-08-08 08:51:00,
2013-08-08 05:06:00,69.9,67.0,29.96,NNE,22,0.0,-999.0,90,-99.99,,,0.00,weatherlink.com 1.10,2013-08-08 09:06:00,
2013-08-08 05:21:00,69.8,67.0,29.96,ENE,57,3.0,-999.0,90,-99.99,,,0.00,weatherlink.com 1.10,2013-08-08 09:21:00,
2013-08-08 05:36:00,69.8,67.0,29.96,NNE,24,4.0,-999.0,91,-99.99,,,0.00,weatherlink.com 1.10,2013-08-08 09:36:00,
2013-08-08 05:51:00,69.9,67.0,29.96,NNW,342,4.0,-999.0,91,-99.99,,,0.00,weatherlink.com 1.10,2013-08-08 09:51:00,
2013-08-08 06:06:00,69.9,67.0,29.97,North,5,5.0,-999.0,91,-99.99,,,0.00,weatherlink.com 1.10,2013-08-08 10:06:00,
2013-08-08 06:21:00,69.9,67.0,29.97,NNE,32,4.0,-999.0,91,-99.99,,,0.00,weatherlink.com 1.10,2013-08-08 10:21:00,
2013-08-08 06:36:00,70.0,67.0,29.98,North,355,2.0,-999.0,91,-99.99,,,0.00,weatherlink.com 1.10,2013-08-08 10:36:00,
2013-08-08 06:52:00,70.1,67.0,29.98,North,5,6.0,-999.0,91,-99.99,,,0.00,weatherlink.com 1.10,2013-08-08 10:52:00,
2013-08-08 07:06:00,70.2,67.0,29.98,NE,44,7.0,-999.0,90,-99.99,,,0.00,weatherlink.com 1.10,2013-08-08 11:06:00,
2013-08-08 07:21:00,70.4,67.0,29.97,NNW,337,0.0,-999.0,90,-99.99,,,0.00,weatherlink.com 1.10,2013-08-08 11:21:00,
2013-08-08 07:36:00,70.6,68.0,29.98,North,5,8.0,-999.0,90,-99.99,,,0.00,weatherlink.com 1.10,2013-08-08 11:36:00,
2013-08-08 07:52:00,70.8,68.0,29.99,NE,40,1.0,-999.0,89,-99.99,,,0.00,weatherlink.com 1.10,2013-08-08 11:52:00,
2013-08-08 08:06:00,71.0,68.0,29.99,NNE,20,4.0,-999.0,89,-99.99,,,0.00,weatherlink.com 1.10,2013-08-08 12:06:00,
2013-08-08 08:21:00,71.3,68.0,29.99,NE,37,10.0,-999.0,89,-99.99,,,0.00,weatherlink.com 1.10,2013-08-08 12:21:00,
2013-08-08 08:37:00,71.6,68.0,29.99,North,5,5.0,-999.0,88,-99.99,,,0.00,weatherlink.com 1.10,2013-08-08 12:37:00,
2013-08-08 08:51:00,71.7,68.0,29.99,North,360,3.0,-999.0,88,-99.99,,,0.00,weatherlink.com 1.10,2013-08-08 12:51:00,
2013-08-08 09:06:00,72.5,69.0,30.00,NNE,33,5.0,-999.0,87,-99.99,,,0.00,weatherlink.com 1.10,2013-08-08 13:06:00,
2013-08-08 09:21:00,73.0,69.0,30.00,NNE,16,5.0,-999.0,86,-99.99,,,0.00,weatherlink.com 1.10,2013-08-08 13:21:00,
2013-08-08 09:37:00,73.2,69.0,29.99,West,280,0.0,-999.0,86,-99.99,,,0.00,weatherlink.com 1.10,2013-08-08 13:37:00,
2013-08-08 09:51:00,73.6,69.0,29.98,NNW,340,0.0,-999.0,85,-99.99,,,0.00,weatherlink.com 1.10,2013-08-08 13:51:00,
2013-08-08 10:07:00,74.7,70.0,29.99,North,10,3.0,-999.0,84,-99.99,,,0.00,weatherlink.com 1.10,2013-08-08 14:07:00,
2013-08-08 10:22:00,74.5,69.0,29.99,North,350,6.0,-999.0,84,-99.99,,,0.00,weatherlink.com 1.10,2013-08-08 14:22:00,
2013-08-08 10:37:00,75.3,70.0,29.99,NNW,337,8.0,-999.0,82,-99.99,,,0.00,weatherlink.com 1.10,2013-08-08 14:37:00,
2013-08-08 10:52:00,75.8,70.0,29.99,NNE,30,1.0,-999.0,82,-99.99,,,0.00,weatherlink.com 1.10,2013-08-08 14:52:00,
2013-08-08 11:07:00,76.5,70.0,29.98,North,5,4.0,-999.0,81,-99.99,,,0.00,weatherlink.com 1.10,2013-08-08 15:07:00,
2013-08-08 11:22:00,76.9,70.0,29.98,North,350,0.0,-999.0,79,-99.99,,,0.00,weatherlink.com 1.10,2013-08-08 15:22:00,
2013-08-08 11:37:00,78.7,71.0,29.97,NNE,15,4.0,-999.0,77,-99.99,,,0.00,weatherlink.com 1.10,2013-08-08 15:37:00,
2013-08-08 11:52:00,78.9,71.0,29.97,North,5,5.0,-999.0,76,-99.99,,,0.00,weatherlink.com 1.10,2013-08-08 15:52:00,
2013-08-08 12:07:00,79.8,71.0,29.97,NE,34,0.0,-999.0,74,-99.99,,,0.00,weatherlink.com 1.10,2013-08-08 16:07:00,
2013-08-08 12:23:00,78.3,70.0,29.97,NNE,14,0.0,-999.0,75,-99.99,,,0.00,weatherlink.com 1.10,2013-08-08 16:23:00,
2013-08-08 12:37:00,79.5,71.0,29.97,North,9,0.0,-999.0,74,-99.99,,,0.00,weatherlink.com 1.10,2013-08-08 16:37:00,
2013-08-08 12:52:00,79.2,71.0,29.97,NNE,24,4.0,-999.0,75,-99.99,,,0.00,weatherlink.com 1.10,2013-08-08 16:52:00,
2013-08-08 13:07:00,81.0,71.0,29.97,North,5,1.0,-999.0,71,-99.99,,,0.00,weatherlink.com 1.10,2013-08-08 17:07:00,
2013-08-08 13:22:00,81.3,71.0,29.96,North,355,10.0,-999.0,71,-99.99,,,0.00,weatherlink.com 1.10,2013-08-08 17:22:00,
2013-08-08 13:37:00,80.6,71.0,29.97,NNE,18,4.0,-999.0,72,-99.99,,,0.00,weatherlink.com 1.10,2013-08-08 17:37:00,
2013-08-08 13:52:00,80.6,70.0,29.97,NNE,26,0.0,-999.0,71,-99.99,,,0.00,weatherlink.com 1.10,2013-08-08 17:52:00,
2013-08-08 14:07:00,79.8,70.0,29.97,NE,51,5.0,-999.0,72,-99.99,,,0.00,weatherlink.com 1.10,2013-08-08 18:07:00,
2013-08-08 14:22:00,80.1,73.0,29.96,WSW,244,1.0,-999.0,79,-99.99,,,0.00,weatherlink.com 1.10,2013-08-08 18:22:00,
2013-08-08 14:37:00,81.7,71.0,29.96,NE,40,4.0,-999.0,70,-99.99,,,0.00,weatherlink.com 1.10,2013-08-08 18:37:00,
2013-08-08 14:52:00,82.2,71.0,29.96,NE,34,7.0,-999.0,68,-99.99,,,0.00,weatherlink.com 1.10,2013-08-08 18:52:00,
2013-08-08 15:07:00,83.1,71.0,29.96,NNE,13,10.0,-999.0,68,-99.99,,,0.00,weatherlink.com 1.10,2013-08-08 19:07:00,
2013-08-08 15:22:00,82.3,72.0,29.96,NNE,27,0.0,-999.0,70,-99.99,,,0.00,weatherlink.com 1.10,2013-08-08 19:22:00,
2013-08-08 15:37:00,82.6,71.0,29.95,NNE,17,8.0,-999.0,68,-99.99,,,0.00,weatherlink.com 1.10,2013-08-08 19:37:00,
2013-08-08 15:52:00,80.5,71.0,29.95,SE,126,0.0,-999.0,72,-99.99,,,0.00,weatherlink.com 1.10,2013-08-08 19:52:00,
2013-08-08 16:07:00,82.3,71.0,29.95,ENE,65,7.0,-999.0,69,-99.99,,,0.00,weatherlink.com 1.10,2013-08-08 20:07:00,
2013-08-08 16:22:00,81.5,71.0,29.94,North,9,8.0,-999.0,70,-99.99,,,0.00,weatherlink.com 1.10,2013-08-08 20:22:00,
2013-08-08 16:38:00,81.6,71.0,29.94,NNE,22,9.0,-999.0,71,-99.99,,,0.00,weatherlink.com 1.10,2013-08-08 20:38:00,
2013-08-08 16:53:00,81.8,71.0,29.94,NNW,336,12.0,-999.0,70,-99.99,,,0.00,weatherlink.com 1.10,2013-08-08 20:53:00,
2013-08-08 17:09:00,80.5,71.0,29.93,North,10,13.0,-999.0,72,-99.99,,,0.00,weatherlink.com 1.10,2013-08-08 21:09:00,
2013-08-08 17:38:00,79.3,71.0,29.93,NE,50,3.0,-999.0,76,-99.99,,,0.00,weatherlink.com 1.10,2013-08-08 21:38:00,
2013-08-08 17:53:00,78.7,71.0,29.94,NNE,30,10.0,-999.0,77,-99.99,,,0.00,weatherlink.com 1.10,2013-08-08 21:53:00,
2013-08-08 18:23:00,78.9,71.0,29.95,NNE,31,3.0,-999.0,77,-99.99,,,0.00,weatherlink.com 1.10,2013-08-08 22:23:00,
2013-08-08 18:38:00,78.7,71.0,29.94,NNW,345,0.0,-999.0,77,-99.99,,,0.00,weatherlink.com 1.10,2013-08-08 22:38:00,
2013-08-08 18:53:00,78.6,71.0,29.95,NE,43,7.0,-999.0,77,-99.99,,,0.00,weatherlink.com 1.10,2013-08-08 22:53:00,
2013-08-08 19:08:00,78.2,71.0,29.94,NNE,17,3.0,-999.0,78,-99.99,,,0.00,weatherlink.com 1.10,2013-08-08 23:08:00,
2013-08-08 19:24:00,77.8,71.0,29.95,NNE,15,0.0,-999.0,79,-99.99,,,0.00,weatherlink.com 1.10,2013-08-08 23:24:00,
2013-08-08 19:38:00,77.8,71.0,29.95,SE,144,0.0,-999.0,79,-99.99,,,0.00,weatherlink.com 1.10,2013-08-08 23:38:00,
2013-08-08 19:53:00,77.7,71.0,29.94,North,9,4.0,-999.0,79,-99.99,,,0.00,weatherlink.com 1.10,2013-08-08 23:53:00,
2013-08-08 20:09:00,77.5,71.0,29.94,NNE,13,5.0,-999.0,80,-99.99,,,0.00,weatherlink.com 1.10,2013-08-09 00:09:00,
2013-08-08 20:23:00,77.3,71.0,29.95,North,355,2.0,-999.0,80,-99.99,,,0.00,weatherlink.com 1.10,2013-08-09 00:23:00,
2013-08-08 20:38:00,77.0,71.0,29.95,NNW,348,0.0,-999.0,81,-99.99,,,0.00,weatherlink.com 1.10,2013-08-09 00:38:00,
2013-08-08 20:53:00,76.9,71.0,29.95,North,11,8.0,-999.0,82,-99.99,,,0.00,weatherlink.com 1.10,2013-08-09 00:53:00,
2013-08-08 21:23:00,76.7,71.0,29.95,NNE,15,5.0,-999.0,82,-99.99,,,0.00,weatherlink.com 1.10,2013-08-09 01:23:00,
2013-08-08 21:38:00,76.4,71.0,29.95,North,355,2.0,-999.0,83,-99.99,,,0.00,weatherlink.com 1.10,2013-08-09 01:38:00,
2013-08-08 21:53:00,76.2,71.0,29.95,West,279,0.0,-999.0,83,-99.99,,,0.00,weatherlink.com 1.10,2013-08-09 01:53:00,
2013-08-08 22:08:00,75.9,71.0,29.95,North,5,6.0,-999.0,84,-99.99,,,0.00,weatherlink.com 1.10,2013-08-09 02:08:00,
2013-08-08 22:39:00,75.4,70.0,29.93,North,5,1.0,-999.0,84,-99.99,,,0.00,weatherlink.com 1.10,2013-08-09 02:39:00,
2013-08-08 22:53:00,75.3,71.0,29.94,North,5,3.0,-999.0,85,-99.99,,,0.00,weatherlink.com 1.10,2013-08-09 02:53:00,
2013-08-08 23:08:00,75.2,71.0,29.93,NNE,20,4.0,-999.0,85,-99.99,,,0.00,weatherlink.com 1.10,2013-08-09 03:08:00,
2013-08-08 23:23:00,75.0,71.0,29.93,East,92,2.0,-999.0,86,-99.99,,,0.00,weatherlink.com 1.10,2013-08-09 03:23:00,
2013-08-08 23:53:00,74.9,71.0,29.94,NNE,19,2.0,-999.0,86,-99.99,,,0.00,weatherlink.com 1.10,2013-08-09 03:53:00,